Time;durP1;ratioP1;P1;durP2;ratioP2;P2;SDS_P1;SDS_P2;PMS_P1;PMS_P2;Temp;Humidity;BMP_temperature;BMP_pressure;BME280_temperature;BME280_humidity;BME280_pressure;Samples;Min_cycle;Max_cycle;Signal;HPM_P1;HPM_P2
2022/12/31 00:00:39;;;;;;;1.13;1.02;;;10.60;99.90;;;;;;5093060;28;20414;-60
2022/12/31 00:03:08;;;;;;;1.55;1.33;;;10.60;99.90;;;;;;5092524;28;20412;-60
2022/12/31 00:05:35;;;;;;;1.35;0.90;;;10.70;99.90;;;;;;5092895;28;20765;-60
2022/12/31 00:08:02;;;;;;;1.98;1.23;;;10.70;99.90;;;;;;5092625;28;20421;-59
2022/12/31 00:10:30;;;;;;;1.60;1.10;;;10.70;99.90;;;;;;5092631;28;20410;-60
2022/12/31 00:12:56;;;;;;;1.88;1.40;;;10.70;99.90;;;;;;5092475;28;20414;-59
2022/12/31 00:15:23;;;;;;;2.25;1.20;;;10.80;99.90;;;;;;5092841;28;20428;-60
2022/12/31 00:17:50;;;;;;;1.30;1.10;;;10.70;99.90;;;;;;5092386;28;20420;-58
2022/12/31 00:20:18;;;;;;;1.70;1.10;;;10.80;99.90;;;;;;5092576;28;20420;-59
2022/12/31 00:22:45;;;;;;;2.08;1.40;;;10.80;99.90;;;;;;5092408;28;20406;-58
2022/12/31 00:25:12;;;;;;;1.17;1.08;;;10.80;99.90;;;;;;5092179;28;20401;-59
2022/12/31 00:27:38;;;;;;;1.50;1.00;;;10.80;99.90;;;;;;5097414;28;20413;-60
2022/12/31 00:30:06;;;;;;;1.20;1.10;;;10.80;99.90;;;;;;5099381;28;20417;-59
2022/12/31 00:32:33;;;;;;;1.20;1.10;;;10.80;99.90;;;;;;5099273;28;20501;-59
2022/12/31 00:35:00;;;;;;;1.50;1.13;;;10.80;99.90;;;;;;5097457;28;20430;-58
2022/12/31 00:37:28;;;;;;;2.03;1.10;;;10.80;99.90;;;;;;5097584;28;20440;-59
2022/12/31 00:39:54;;;;;;;1.33;1.20;;;10.80;99.90;;;;;;5100244;28;20513;-60
2022/12/31 00:42:21;;;;;;;1.50;1.30;;;10.80;99.90;;;;;;5100200;28;20410;-59
2022/12/31 00:44:48;;;;;;;1.50;1.10;;;10.80;99.90;;;;;;5099938;28;20413;-59
2022/12/31 00:47:15;;;;;;;1.55;1.17;;;10.80;99.90;;;;;;5099678;28;20405;-60
2022/12/31 00:49:42;;;;;;;1.60;1.10;;;10.80;99.90;;;;;;5098974;28;20420;-60
2022/12/31 00:52:08;;;;;;;1.30;1.10;;;10.80;99.90;;;;;;5099224;28;20453;-59
2022/12/31 00:54:37;;;;;;;2.28;1.20;;;10.90;99.90;;;;;;5100015;28;20413;-59
2022/12/31 00:57:04;;;;;;;2.20;1.60;;;10.90;99.90;;;;;;5100507;28;20429;-58
2022/12/31 00:59:30;;;;;;;1.33;1.23;;;10.90;99.90;;;;;;5100226;28;20436;-59
2022/12/31 01:01:57;;;;;;;1.63;1.25;;;10.90;99.90;;;;;;5100070;28;20421;-59
2022/12/31 01:04:24;;;;;;;1.95;1.48;;;10.90;99.90;;;;;;5103440;28;20410;-59
2022/12/31 01:06:51;;;;;;;2.10;1.40;;;11.00;99.90;;;;;;5102856;28;20409;-60
2022/12/31 01:09:18;;;;;;;1.80;1.40;;;11.00;99.90;;;;;;5100557;28;20418;-59
2022/12/31 01:11:46;;;;;;;1.70;1.50;;;11.00;99.90;;;;;;5097305;28;20500;-59
2022/12/31 01:14:15;;;;;;;1.70;1.60;;;11.00;99.90;;;;;;5098133;28;21003;-58
2022/12/31 01:16:44;;;;;;;1.60;1.40;;;11.10;99.90;;;;;;5096538;28;20425;-60
2022/12/31 01:19:14;;;;;;;1.30;1.13;;;11.10;99.90;;;;;;5095717;28;20409;-60
2022/12/31 01:21:42;;;;;;;1.80;1.40;;;11.10;99.90;;;;;;5095958;28;20422;-59
2022/12/31 01:24:10;;;;;;;1.50;1.30;;;11.10;99.90;;;;;;5095701;28;20425;-59
2022/12/31 01:26:37;;;;;;;1.80;1.50;;;11.20;99.90;;;;;;5096088;28;20842;-59
2022/12/31 01:29:06;;;;;;;2.20;1.70;;;11.20;99.90;;;;;;5096007;28;20414;-60
2022/12/31 01:31:34;;;;;;;1.50;1.40;;;11.20;99.90;;;;;;5095928;28;20410;-59
2022/12/31 01:34:01;;;;;;;2.00;1.50;;;11.20;99.90;;;;;;5095735;28;20777;-59
2022/12/31 01:36:29;;;;;;;1.40;1.30;;;11.20;99.90;;;;;;5095360;28;20448;-59
2022/12/31 01:38:57;;;;;;;1.60;1.50;;;11.20;99.90;;;;;;5094786;28;20797;-60
2022/12/31 01:41:26;;;;;;;2.20;1.60;;;11.20;99.90;;;;;;5095906;28;20778;-58
2022/12/31 01:43:55;;;;;;;1.90;1.70;;;11.20;99.90;;;;;;5095965;28;20417;-59
2022/12/31 01:46:28;;;;;;;1.60;1.50;;;11.10;99.90;;;;;;5095665;28;20417;-59
2022/12/31 01:48:57;;;;;;;2.50;1.70;;;11.10;99.90;;;;;;5095645;28;20778;-59
2022/12/31 01:51:27;;;;;;;1.70;1.50;;;11.10;99.90;;;;;;5095076;28;20898;-60
2022/12/31 01:53:54;;;;;;;1.75;1.65;;;11.10;99.90;;;;;;5097134;28;20414;-59
2022/12/31 01:56:23;;;;;;;1.40;1.10;;;11.10;99.90;;;;;;5095484;28;20422;-60
2022/12/31 01:58:52;;;;;;;2.20;1.77;;;11.10;99.90;;;;;;5094509;28;20444;-59
2022/12/31 02:01:23;;;;;;;2.70;1.65;;;11.10;99.90;;;;;;5094357;28;20900;-59
2022/12/31 02:03:51;;;;;;;1.53;1.30;;;11.10;99.90;;;;;;5095127;28;20774;-59
2022/12/31 02:06:21;;;;;;;2.17;1.40;;;11.10;99.90;;;;;;5095476;28;20406;-60
2022/12/31 02:08:48;;;;;;;1.90;1.40;;;11.10;99.90;;;;;;5094377;28;20410;-58
2022/12/31 02:11:24;;;;;;;1.67;1.40;;;11.10;99.90;;;;;;5094574;28;20421;-58
2022/12/31 02:13:53;;;;;;;1.70;1.20;;;11.10;99.90;;;;;;5094384;28;20426;-59
2022/12/31 02:16:26;;;;;;;1.95;1.45;;;11.00;99.90;;;;;;5094532;28;20422;-60
2022/12/31 02:18:58;;;;;;;1.60;1.30;;;11.00;99.90;;;;;;5094000;28;20421;-59
2022/12/31 02:21:43;;;;;;;1.40;1.20;;;11.00;99.90;;;;;;5094403;28;20409;-59
2022/12/31 02:24:53;;;;;;;1.65;1.20;;;11.00;99.90;;;;;;5093727;28;20893;-59
2022/12/31 02:27:34;;;;;;;2.70;1.25;;;11.00;99.90;;;;;;5094351;28;20409;-60
2022/12/31 02:30:08;;;;;;;2.03;1.08;;;11.10;99.90;;;;;;5094185;28;20409;-59
2022/12/31 02:32:47;;;;;;;1.70;1.30;;;11.10;99.90;;;;;;5094113;28;20414;-58
2022/12/31 02:35:19;;;;;;;1.50;1.20;;;11.10;99.90;;;;;;5093758;28;20444;-59
2022/12/31 02:37:51;;;;;;;1.40;1.10;;;11.10;99.90;;;;;;5093947;28;20432;-60
2022/12/31 02:40:21;;;;;;;2.80;1.00;;;11.10;99.90;;;;;;5093917;28;20418;-59
2022/12/31 02:42:48;;;;;;;2.00;1.20;;;11.10;99.90;;;;;;5093748;28;20421;-59
2022/12/31 02:45:23;;;;;;;1.13;0.90;;;11.10;99.90;;;;;;5093846;28;20478;-59
2022/12/31 02:48:01;;;;;;;1.45;1.10;;;11.10;99.90;;;;;;5093930;28;20410;-59
2022/12/31 02:50:36;;;;;;;1.10;0.80;;;11.10;99.90;;;;;;5092860;28;20489;-59
2022/12/31 02:53:14;;;;;;;1.00;0.90;;;11.10;99.90;;;;;;5094079;28;20470;-60
2022/12/31 02:55:46;;;;;;;1.40;0.90;;;11.20;99.90;;;;;;5093850;28;20422;-58
2022/12/31 02:58:20;;;;;;;1.20;0.88;;;11.20;99.90;;;;;;5093923;28;20425;-59
2022/12/31 03:03:40;;;;;;;1.70;1.00;;;11.20;99.90;;;;;;5094138;28;20512;-59
2022/12/31 03:06:09;;;;;;;1.50;1.00;;;11.20;99.90;;;;;;5094198;28;20535;-59
2022/12/31 03:09:11;;;;;;;1.70;1.00;;;11.20;99.90;;;;;;5093661;28;20413;-58
2022/12/31 03:14:04;;;;;;;1.63;0.90;;;11.20;99.90;;;;;;5092337;28;20485;-58
2022/12/31 03:16:33;;;;;;;1.40;1.00;;;11.20;99.90;;;;;;5094192;28;20432;-60
2022/12/31 03:27:13;;;;;;;1.40;0.90;;;11.30;99.90;;;;;;5093190;28;20389;-59
2022/12/31 03:29:39;;;;;;;2.10;1.00;;;11.30;99.90;;;;;;5093198;28;20412;-59
2022/12/31 03:32:07;;;;;;;2.50;1.20;;;11.30;99.90;;;;;;5092948;28;20406;-61
2022/12/31 03:34:34;;;;;;;2.00;1.25;;;11.30;99.90;;;;;;5092821;28;20413;-60
2022/12/31 03:37:01;;;;;;;1.88;1.30;;;11.30;99.90;;;;;;5092783;28;20425;-61
2022/12/31 03:39:28;;;;;;;2.38;1.40;;;11.40;99.90;;;;;;5092656;28;20409;-61
2022/12/31 03:41:54;;;;;;;2.77;1.80;;;11.30;99.90;;;;;;5093370;28;20501;-60
2022/12/31 03:44:21;;;;;;;1.90;1.20;;;11.30;99.90;;;;;;5093327;28;20413;-59
2022/12/31 03:46:48;;;;;;;1.52;1.42;;;11.30;99.90;;;;;;5092833;28;20414;-59
2022/12/31 03:49:16;;;;;;;2.30;1.33;;;11.30;99.90;;;;;;5092548;28;20406;-60
2022/12/31 03:51:43;;;;;;;1.67;1.37;;;11.30;99.90;;;;;;5092931;28;20933;-61
2022/12/31 03:54:10;;;;;;;2.73;1.30;;;11.30;99.90;;;;;;5092452;28;20418;-60
2022/12/31 03:56:36;;;;;;;1.60;1.15;;;11.30;99.90;;;;;;5093582;28;20437;-61
2022/12/31 03:59:03;;;;;;;1.50;1.10;;;11.30;99.90;;;;;;5092303;28;20421;-59
2022/12/31 04:01:30;;;;;;;1.70;1.10;;;11.30;99.90;;;;;;5092474;28;20426;-61
2022/12/31 04:03:56;;;;;;;2.90;1.40;;;11.30;99.90;;;;;;5092959;28;20433;-59
2022/12/31 04:06:25;;;;;;;1.40;1.20;;;11.30;99.90;;;;;;5093651;28;20421;-60
2022/12/31 04:10:53;;;;;;;2.33;1.30;;;11.30;99.90;;;;;;5132144;27;20346;-61
2022/12/31 04:13:19;;;;;;;2.55;1.35;;;11.30;99.90;;;;;;5131386;27;20399;-62
2022/12/31 04:15:49;;;;;;;1.52;1.40;;;11.30;99.90;;;;;;5130910;27;20412;-62
2022/12/31 04:18:16;;;;;;;2.00;1.80;;;11.30;99.90;;;;;;5130580;27;20412;-61
2022/12/31 04:20:43;;;;;;;2.10;1.90;;;11.30;99.90;;;;;;5130797;27;20408;-61
2022/12/31 04:25:53;;;;;;;2.33;2.10;;;11.40;99.90;;;;;;5128268;28;20418;-61
2022/12/31 04:28:20;;;;;;;2.22;2.03;;;11.40;99.90;;;;;;5130813;28;20408;-61
2022/12/31 04:30:47;;;;;;;3.47;2.10;;;11.40;99.90;;;;;;5130770;28;20896;-62
2022/12/31 04:33:13;;;;;;;3.22;1.73;;;11.40;99.90;;;;;;5130782;28;20418;-61
2022/12/31 04:35:40;;;;;;;3.35;1.90;;;11.50;99.90;;;;;;5131035;28;20446;-61
2022/12/31 04:38:07;;;;;;;2.40;1.90;;;11.50;99.90;;;;;;5130711;28;20442;-61
2022/12/31 04:40:34;;;;;;;3.77;2.00;;;11.50;99.90;;;;;;5130725;28;20400;-61
2022/12/31 04:43:02;;;;;;;1.95;1.85;;;11.50;99.90;;;;;;5130639;28;20435;-61
2022/12/31 04:45:28;;;;;;;2.10;1.90;;;11.50;99.90;;;;;;5129790;28;20863;-61
2022/12/31 04:47:55;;;;;;;2.20;2.00;;;11.50;99.90;;;;;;5130346;28;20406;-61
2022/12/31 04:50:22;;;;;;;3.40;1.80;;;11.50;99.90;;;;;;5130067;28;20416;-61
2022/12/31 04:52:48;;;;;;;1.98;1.50;;;11.50;99.90;;;;;;5130445;28;20435;-62
2022/12/31 04:55:15;;;;;;;1.65;1.55;;;11.50;99.90;;;;;;5129868;28;20414;-61
2022/12/31 04:57:42;;;;;;;1.70;1.60;;;11.50;99.90;;;;;;5129897;28;20412;-61
2022/12/31 05:00:12;;;;;;;3.10;1.50;;;11.60;99.90;;;;;;5130078;28;20491;-60
2022/12/31 05:02:39;;;;;;;1.40;1.20;;;11.60;99.90;;;;;;5129806;28;20411;-61
2022/12/31 05:05:06;;;;;;;1.92;1.70;;;11.60;99.90;;;;;;5129782;28;20403;-62
2022/12/31 05:07:33;;;;;;;1.50;1.40;;;11.60;99.90;;;;;;5129733;28;20411;-62
2022/12/31 05:09:59;;;;;;;1.80;1.20;;;11.60;99.90;;;;;;5129619;28;20430;-62
2022/12/31 05:12:26;;;;;;;1.50;1.10;;;11.60;99.90;;;;;;5129793;28;20412;-61
2022/12/31 05:14:53;;;;;;;1.20;1.00;;;11.60;99.90;;;;;;5129774;28;20430;-62
2022/12/31 05:17:21;;;;;;;1.30;0.90;;;11.60;99.90;;;;;;5129467;28;20481;-62
2022/12/31 05:19:48;;;;;;;1.60;0.80;;;11.60;99.90;;;;;;5129428;28;20404;-61
2022/12/31 05:22:29;;;;;;;0.90;0.70;;;11.60;99.90;;;;;;5115458;28;20415;-62
2022/12/31 05:24:57;;;;;;;1.40;0.93;;;11.60;99.90;;;;;;5115402;28;20412;-61
2022/12/31 05:27:24;;;;;;;1.90;1.00;;;11.60;99.90;;;;;;5115401;28;20899;-62
2022/12/31 05:29:50;;;;;;;1.00;0.80;;;11.60;99.90;;;;;;5115389;28;20420;-63
2022/12/31 05:32:17;;;;;;;1.10;0.80;;;11.60;99.90;;;;;;5115278;28;20416;-62
2022/12/31 05:34:45;;;;;;;0.70;0.50;;;11.60;99.90;;;;;;5115096;28;20896;-61
2022/12/31 05:37:12;;;;;;;1.30;0.60;;;11.60;99.90;;;;;;5115610;28;20408;-62
2022/12/31 05:39:39;;;;;;;0.80;0.70;;;11.60;99.90;;;;;;5114960;28;20445;-62
2022/12/31 05:42:05;;;;;;;0.80;0.60;;;11.60;99.90;;;;;;5115120;28;20435;-63
2022/12/31 05:44:32;;;;;;;1.70;0.50;;;11.60;99.90;;;;;;5114989;28;20416;-62
2022/12/31 05:46:59;;;;;;;1.10;0.50;;;11.60;99.90;;;;;;5114762;28;20491;-62
2022/12/31 05:49:26;;;;;;;1.60;0.60;;;11.60;99.90;;;;;;5115170;28;20445;-62
2022/12/31 05:51:54;;;;;;;1.40;0.60;;;11.60;99.90;;;;;;5115254;28;20412;-62
2022/12/31 05:54:21;;;;;;;0.93;0.60;;;11.60;99.90;;;;;;5114948;28;20435;-63
2022/12/31 05:56:47;;;;;;;0.80;0.60;;;11.60;99.90;;;;;;5115107;28;20411;-62
2022/12/31 05:59:14;;;;;;;1.80;0.50;;;11.50;99.90;;;;;;5115016;28;20787;-62
2022/12/31 06:01:41;;;;;;;0.70;0.45;;;11.50;99.90;;;;;;5114556;28;20428;-62
2022/12/31 06:04:07;;;;;;;0.60;0.40;;;11.50;99.90;;;;;;5114774;28;20408;-62
2022/12/31 06:06:34;;;;;;;1.10;0.40;;;11.50;99.90;;;;;;5115375;28;20889;-62
2022/12/31 06:09:03;;;;;;;0.90;0.47;;;11.50;99.90;;;;;;5116493;28;20423;-61
2022/12/31 06:11:29;;;;;;;1.02;0.50;;;11.50;99.90;;;;;;5116702;28;20852;-61
2022/12/31 06:13:57;;;;;;;0.75;0.50;;;11.50;99.90;;;;;;5115134;28;20411;-62
2022/12/31 06:16:23;;;;;;;0.70;0.50;;;11.50;99.90;;;;;;5114886;28;20457;-62
2022/12/31 06:18:51;;;;;;;0.50;0.40;;;11.50;99.90;;;;;;5114733;28;20419;-62
2022/12/31 06:21:17;;;;;;;0.80;0.50;;;11.50;99.90;;;;;;5114546;28;20409;-61
2022/12/31 06:23:44;;;;;;;1.30;0.43;;;11.50;99.90;;;;;;5114838;28;20420;-62
2022/12/31 06:26:12;;;;;;;0.85;0.52;;;11.50;99.90;;;;;;5114821;28;20423;-61
2022/12/31 06:28:39;;;;;;;0.80;0.50;;;11.50;99.90;;;;;;5115128;28;20424;-62
2022/12/31 06:31:08;;;;;;;0.80;0.60;;;11.50;99.90;;;;;;5116937;28;20416;-61
2022/12/31 06:33:35;;;;;;;0.73;0.40;;;11.50;99.90;;;;;;5115759;28;20412;-60
2022/12/31 06:36:04;;;;;;;0.70;0.40;;;11.50;99.90;;;;;;5114611;28;20765;-61
2022/12/31 06:38:32;;;;;;;0.70;0.60;;;11.50;99.90;;;;;;5114631;28;20412;-61
2022/12/31 06:41:02;;;;;;;0.80;0.47;;;11.50;99.90;;;;;;5114898;28;20418;-61
2022/12/31 06:43:31;;;;;;;1.50;0.50;;;11.50;99.90;;;;;;5113953;28;20891;-61
2022/12/31 06:46:00;;;;;;;1.00;0.70;;;11.40;99.90;;;;;;5113950;28;20411;-62
2022/12/31 06:48:27;;;;;;;1.48;0.80;;;11.50;99.90;;;;;;5113737;28;20404;-62
2022/12/31 06:50:53;;;;;;;1.48;1.10;;;11.50;99.90;;;;;;5113848;28;20424;-62
2022/12/31 06:53:20;;;;;;;1.75;0.93;;;11.50;99.90;;;;;;5113697;28;20412;-62
2022/12/31 06:55:48;;;;;;;1.10;0.95;;;11.50;99.90;;;;;;5113710;28;20453;-61
2022/12/31 06:58:16;;;;;;;2.60;1.00;;;11.50;99.90;;;;;;5113322;28;20427;-62
2022/12/31 07:00:53;;;;;;;1.40;0.90;;;11.50;99.90;;;;;;5113559;28;20432;-63
2022/12/31 07:03:29;;;;;;;1.88;1.10;;;11.50;99.90;;;;;;5113020;28;20415;-63
2022/12/31 07:06:01;;;;;;;1.63;1.30;;;11.50;99.90;;;;;;5113522;28;20416;-62
2022/12/31 07:08:39;;;;;;;1.98;1.40;;;11.50;99.90;;;;;;5113234;28;20905;-63
2022/12/31 07:11:15;;;;;;;1.50;1.40;;;11.50;99.90;;;;;;5113545;28;20424;-62
2022/12/31 07:14:04;;;;;;;1.90;1.55;;;11.50;99.90;;;;;;5113187;28;20776;-62
2022/12/31 07:16:54;;;;;;;3.10;2.10;;;11.50;99.90;;;;;;5113231;28;20432;-63
2022/12/31 07:19:32;;;;;;;3.22;2.60;;;11.50;99.90;;;;;;5113224;28;20411;-63
2022/12/31 07:21:59;;;;;;;2.92;2.13;;;11.50;99.90;;;;;;5113473;28;20423;-62
2022/12/31 07:24:27;;;;;;;2.60;1.70;;;11.50;99.90;;;;;;5112749;28;20420;-62
2022/12/31 07:27:06;;;;;;;2.92;2.05;;;11.50;99.90;;;;;;5113116;28;20441;-62
2022/12/31 07:29:48;;;;;;;3.07;2.20;;;11.50;99.90;;;;;;5113036;28;20480;-63
2022/12/31 07:32:30;;;;;;;4.20;2.65;;;11.50;99.90;;;;;;5112625;28;20411;-62
2022/12/31 07:35:09;;;;;;;3.92;1.77;;;11.50;99.90;;;;;;5112484;28;20415;-61
2022/12/31 07:37:44;;;;;;;2.95;2.15;;;11.50;99.90;;;;;;5112819;28;20822;-61
2022/12/31 07:40:18;;;;;;;4.80;3.10;;;11.50;99.90;;;;;;5112829;28;20422;-62
2022/12/31 07:43:03;;;;;;;5.00;3.50;;;11.50;99.90;;;;;;5112829;28;20408;-61
2022/12/31 07:45:37;;;;;;;5.90;3.42;;;11.50;99.90;;;;;;5112170;28;20411;-61
2022/12/31 07:48:20;;;;;;;7.13;3.90;;;11.50;99.90;;;;;;5112994;28;20412;-62
2022/12/31 07:50:48;;;;;;;7.88;4.00;;;11.50;99.90;;;;;;5112205;28;20769;-62
2022/12/31 07:53:15;;;;;;;7.30;4.20;;;11.50;99.90;;;;;;5113042;28;20480;-61
2022/12/31 07:55:42;;;;;;;5.07;2.40;;;11.50;99.90;;;;;;5112487;28;20412;-62
2022/12/31 07:58:19;;;;;;;2.50;1.20;;;11.50;99.90;;;;;;5113653;28;20420;-63
2022/12/31 08:00:46;;;;;;;2.00;1.30;;;11.50;99.90;;;;;;5113099;28;20404;-61
2022/12/31 08:03:29;;;;;;;1.47;1.00;;;11.50;99.90;;;;;;5112036;28;20918;-61
2022/12/31 08:06:10;;;;;;;1.60;0.90;;;11.50;99.90;;;;;;5112561;28;20408;-62
2022/12/31 08:08:47;;;;;;;1.53;0.90;;;11.50;99.90;;;;;;5112079;28;20915;-63
2022/12/31 08:11:22;;;;;;;1.30;0.82;;;11.50;99.90;;;;;;5112389;28;20451;-62
2022/12/31 08:13:49;;;;;;;1.90;1.00;;;11.50;99.90;;;;;;5112400;28;20420;-63
2022/12/31 08:16:16;;;;;;;0.95;0.60;;;11.50;99.90;;;;;;5112611;28;20412;-63
2022/12/31 08:18:45;;;;;;;1.10;0.70;;;11.50;99.90;;;;;;5113147;28;20412;-63
2022/12/31 08:21:23;;;;;;;1.38;1.00;;;11.60;99.90;;;;;;5112951;28;20411;-63
2022/12/31 08:24:01;;;;;;;1.20;0.70;;;11.60;99.90;;;;;;5112225;28;20416;-62
2022/12/31 08:26:36;;;;;;;1.10;0.70;;;11.60;99.90;;;;;;5112633;28;20420;-62
2022/12/31 08:29:19;;;;;;;1.20;0.70;;;11.60;99.90;;;;;;5112347;28;20416;-62
2022/12/31 08:31:54;;;;;;;2.30;1.00;;;11.60;99.90;;;;;;5111862;28;20427;-62
2022/12/31 08:34:30;;;;;;;3.00;1.10;;;11.60;99.90;;;;;;5111891;28;20416;-62
2022/12/31 08:37:03;;;;;;;1.50;1.00;;;11.60;99.90;;;;;;5111976;28;20430;-62
2022/12/31 08:39:51;;;;;;;2.05;1.20;;;11.60;99.90;;;;;;5111989;28;20417;-62
2022/12/31 08:42:25;;;;;;;2.63;1.30;;;11.70;99.90;;;;;;5111764;28;20412;-62
2022/12/31 08:44:59;;;;;;;1.50;0.93;;;11.70;99.90;;;;;;5112026;28;20412;-63
2022/12/31 08:47:32;;;;;;;1.33;1.00;;;11.70;99.90;;;;;;5111853;28;20408;-61
2022/12/31 08:50:01;;;;;;;2.15;1.50;;;11.70;99.90;;;;;;5111786;28;20415;-63
2022/12/31 08:52:29;;;;;;;2.40;2.10;;;11.70;99.90;;;;;;5111813;28;20418;-63
2022/12/31 08:54:56;;;;;;;2.50;2.30;;;11.70;99.90;;;;;;5112251;28;20499;-63
2022/12/31 08:57:32;;;;;;;1.98;1.88;;;11.70;99.90;;;;;;5115759;28;20415;-62
2022/12/31 09:00:05;;;;;;;2.55;2.30;;;11.80;99.90;;;;;;5116150;28;20413;-62
2022/12/31 09:02:56;;;;;;;2.80;2.60;;;11.80;99.90;;;;;;5116015;28;20498;-62
2022/12/31 09:05:29;;;;;;;3.10;2.80;;;11.90;99.90;;;;;;5114841;28;20435;-63
2022/12/31 09:08:11;;;;;;;3.30;3.00;;;11.90;99.90;;;;;;5115895;28;20408;-62
2022/12/31 09:10:44;;;;;;;2.50;2.30;;;12.00;99.90;;;;;;5115606;28;20443;-62
2022/12/31 09:13:21;;;;;;;2.30;2.10;;;12.00;99.90;;;;;;5115668;28;20404;-62
2022/12/31 09:15:56;;;;;;;2.20;2.00;;;12.00;99.90;;;;;;5115968;28;20792;-62
2022/12/31 09:18:24;;;;;;;1.67;1.50;;;12.00;99.90;;;;;;5116051;28;20408;-62
2022/12/31 09:20:53;;;;;;;3.70;2.10;;;12.00;99.90;;;;;;5115291;28;20415;-64
2022/12/31 09:23:20;;;;;;;2.78;2.10;;;12.00;99.90;;;;;;5115978;28;20413;-63
2022/12/31 09:25:55;;;;;;;3.00;1.60;;;12.00;99.90;;;;;;5115949;28;20792;-61
2022/12/31 09:28:33;;;;;;;2.15;1.70;;;12.10;99.90;;;;;;5115304;28;20409;-63
2022/12/31 09:31:05;;;;;;;3.60;3.08;;;12.10;99.90;;;;;;5115534;28;20447;-63
2022/12/31 09:33:40;;;;;;;4.00;3.00;;;12.20;99.90;;;;;;5115060;28;20776;-64
2022/12/31 09:36:14;;;;;;;2.45;2.05;;;12.30;99.90;;;;;;5115140;28;20409;-62
2022/12/31 09:38:51;;;;;;;5.38;4.22;;;12.40;99.90;;;;;;5115268;28;20415;-63
2022/12/31 09:41:39;;;;;;;4.27;3.60;;;12.40;99.90;;;;;;5115080;28;20519;-62
2022/12/31 09:44:41;;;;;;;3.80;2.45;;;12.50;99.90;;;;;;5115005;28;20408;-62
2022/12/31 09:47:50;;;;;;;2.97;2.53;;;12.60;99.90;;;;;;5114787;28;20427;-63
2022/12/31 09:50:57;;;;;;;2.50;1.70;;;12.70;99.90;;;;;;5092064;28;20403;-61
2022/12/31 09:53:50;;;;;;;1.50;1.10;;;12.70;99.90;;;;;;5115193;28;20495;-64
2022/12/31 09:56:25;;;;;;;2.50;1.10;;;12.80;99.90;;;;;;5115200;28;20484;-63
2022/12/31 09:59:02;;;;;;;2.10;1.30;;;12.90;99.90;;;;;;5114658;28;20420;-63
2022/12/31 10:01:42;;;;;;;1.90;1.30;;;13.00;99.90;;;;;;5114872;28;20412;-63
2022/12/31 10:04:43;;;;;;;1.30;0.80;;;13.00;99.90;;;;;;5114432;28;20408;-63
2022/12/31 10:07:23;;;;;;;2.60;0.90;;;13.20;99.90;;;;;;5114325;28;20412;-63
2022/12/31 10:10:00;;;;;;;1.95;1.00;;;13.30;99.90;;;;;;5114264;28;20894;-62
2022/12/31 10:13:02;;;;;;;2.80;0.98;;;13.40;99.90;;;;;;5114251;28;20477;-62
2022/12/31 10:15:50;;;;;;;1.95;0.80;;;13.50;99.90;;;;;;5114283;28;20888;-63
2022/12/31 10:18:32;;;;;;;3.40;0.90;;;13.70;99.90;;;;;;5113831;28;20408;-63
2022/12/31 10:21:15;;;;;;;2.85;0.77;;;13.80;99.90;;;;;;5114039;28;20883;-63
2022/12/31 10:23:55;;;;;;;2.50;1.00;;;13.90;99.90;;;;;;5114077;28;20412;-62
2022/12/31 10:26:34;;;;;;;1.60;0.90;;;14.10;99.90;;;;;;5114211;28;20734;-62
2022/12/31 10:29:19;;;;;;;1.67;0.80;;;14.20;99.90;;;;;;5114613;28;20427;-63
2022/12/31 10:31:54;;;;;;;1.80;0.77;;;14.40;99.90;;;;;;5114093;28;20416;-63
2022/12/31 10:34:29;;;;;;;1.98;0.73;;;14.60;99.90;;;;;;5127966;22;20754;-63
2022/12/31 10:37:03;;;;;;;1.53;0.80;;;14.70;99.90;;;;;;5094577;28;20413;-63
2022/12/31 10:39:41;;;;;;;1.45;0.70;;;14.80;99.90;;;;;;5094097;28;20418;-64
2022/12/31 10:42:44;;;;;;;1.95;0.70;;;14.90;99.90;;;;;;5093798;28;20417;-63
2022/12/31 10:45:34;;;;;;;2.10;0.60;;;15.00;99.90;;;;;;5070253;28;20418;-64
2022/12/31 10:48:29;;;;;;;1.40;0.73;;;15.10;99.90;;;;;;5093614;28;20425;-63
2022/12/31 10:51:26;;;;;;;3.28;0.80;;;15.20;99.90;;;;;;5093606;28;20425;-63
2022/12/31 10:54:34;;;;;;;1.80;0.80;;;15.30;99.90;;;;;;5093418;28;20436;-64
2022/12/31 10:57:35;;;;;;;1.38;0.70;;;15.40;99.90;;;;;;5050050;28;20422;-64
2022/12/31 11:00:12;;;;;;;1.60;0.77;;;15.50;99.90;;;;;;5093188;28;20842;-64
2022/12/31 11:03:08;;;;;;;1.67;0.60;;;15.60;99.90;;;;;;5094167;28;20735;-63
2022/12/31 11:06:00;;;;;;;1.60;0.70;;;15.60;99.90;;;;;;5094981;28;20409;-64
2022/12/31 11:08:49;;;;;;;1.70;0.70;;;15.70;99.90;;;;;;5089586;28;20420;-64
2022/12/31 11:11:30;;;;;;;1.80;0.80;;;15.70;99.90;;;;;;5095779;28;20513;-64
2022/12/31 11:14:20;;;;;;;1.23;0.70;;;15.70;99.90;;;;;;5095322;28;20912;-63
2022/12/31 11:17:05;;;;;;;1.50;0.80;;;15.70;99.90;;;;;;5096729;28;20420;-64
2022/12/31 11:19:41;;;;;;;1.95;0.75;;;15.70;99.90;;;;;;5097342;28;20425;-64
2022/12/31 11:22:24;;;;;;;1.88;0.70;;;15.80;99.90;;;;;;5096304;28;20417;-65
2022/12/31 11:25:16;;;;;;;1.17;0.80;;;15.80;99.90;;;;;;5096137;28;20425;-64
2022/12/31 11:28:04;;;;;;;1.95;1.05;;;15.80;99.90;;;;;;5096105;28;20770;-64
2022/12/31 11:30:44;;;;;;;2.60;0.90;;;15.80;99.90;;;;;;5096108;28;20410;-65
2022/12/31 11:33:24;;;;;;;2.58;0.80;;;15.70;99.90;;;;;;5095876;28;20398;-64
2022/12/31 11:36:13;;;;;;;2.80;1.20;;;15.50;99.90;;;;;;5095279;28;20413;-64
2022/12/31 11:38:46;;;;;;;3.63;1.90;;;15.00;99.90;;;;;;5096335;28;20564;-62
2022/12/31 11:41:21;;;;;;;3.10;1.65;;;14.70;99.90;;;;;;5094708;28;20412;-63
2022/12/31 11:43:55;;;;;;;3.20;1.50;;;14.40;99.90;;;;;;5095156;28;20502;-64
2022/12/31 11:46:43;;;;;;;2.90;1.50;;;14.30;99.90;;;;;;5094871;28;20413;-63
2022/12/31 11:49:28;;;;;;;2.47;1.60;;;14.20;99.90;;;;;;5094332;28;20409;-64
2022/12/31 11:52:12;;;;;;;2.58;1.50;;;14.10;99.90;;;;;;5094346;28;20422;-65
2022/12/31 11:54:59;;;;;;;2.00;1.60;;;14.20;99.90;;;;;;5093818;28;20429;-64
2022/12/31 11:57:30;;;;;;;3.55;1.70;;;14.20;99.90;;;;;;5093284;28;20414;-66
2022/12/31 12:00:00;;;;;;;2.38;1.50;;;14.30;99.90;;;;;;5093431;28;20413;-64
2022/12/31 12:02:29;;;;;;;2.85;1.83;;;14.30;99.90;;;;;;5094465;28;20897;-64
2022/12/31 12:05:00;;;;;;;3.80;2.00;;;14.30;99.90;;;;;;5093267;28;20504;-66
2022/12/31 12:07:30;;;;;;;2.13;1.73;;;14.40;99.90;;;;;;5093037;28;20414;-63
2022/12/31 12:10:00;;;;;;;3.40;1.90;;;14.40;99.90;;;;;;5093177;28;20398;-65
2022/12/31 12:12:38;;;;;;;4.57;2.08;;;14.40;99.90;;;;;;5092865;28;20426;-65
2022/12/31 12:15:07;;;;;;;2.88;1.50;;;14.40;99.90;;;;;;5092437;28;20414;-66
2022/12/31 12:17:34;;;;;;;3.17;1.67;;;14.30;99.90;;;;;;5093109;28;20405;-64
2022/12/31 12:20:04;;;;;;;2.40;1.50;;;14.30;99.90;;;;;;5092616;28;20436;-64
2022/12/31 12:22:32;;;;;;;2.60;1.30;;;14.40;99.90;;;;;;5092995;28;20402;-66
2022/12/31 12:25:04;;;;;;;2.80;1.20;;;14.40;99.90;;;;;;5092395;28;20410;-65
2022/12/31 12:27:32;;;;;;;2.88;1.38;;;14.40;99.90;;;;;;5092997;28;20762;-64
2022/12/31 12:30:09;;;;;;;3.70;1.10;;;14.40;99.90;;;;;;5092921;28;20445;-63
2022/12/31 12:32:36;;;;;;;2.40;1.30;;;14.50;99.90;;;;;;5097391;28;20422;-64
2022/12/31 12:35:13;;;;;;;1.80;1.30;;;14.50;99.90;;;;;;5096376;28;20422;-65
2022/12/31 12:37:42;;;;;;;2.37;1.40;;;14.60;99.90;;;;;;5096925;28;20428;-64
2022/12/31 12:40:20;;;;;;;2.58;1.70;;;14.70;99.90;;;;;;5096517;28;20409;-63
2022/12/31 12:42:48;;;;;;;2.45;1.10;;;14.80;99.90;;;;;;5097200;28;20405;-62
2022/12/31 12:45:17;;;;;;;2.40;1.40;;;14.90;99.90;;;;;;5096748;28;20479;-65
2022/12/31 12:47:47;;;;;;;2.42;1.02;;;15.00;99.90;;;;;;5096744;28;20854;-63
2022/12/31 12:50:16;;;;;;;2.60;1.10;;;15.10;99.90;;;;;;5096601;28;20420;-62
2022/12/31 12:52:57;;;;;;;1.55;1.00;;;15.10;99.90;;;;;;5096478;28;20428;-65
2022/12/31 12:55:29;;;;;;;2.22;1.40;;;15.20;99.90;;;;;;5097159;28;20418;-63
2022/12/31 12:58:04;;;;;;;2.70;1.80;;;15.20;99.90;;;;;;5096242;28;20832;-64
2022/12/31 13:00:33;;;;;;;2.92;1.25;;;15.20;99.90;;;;;;5096258;28;20417;-63
2022/12/31 13:03:48;;;;;;;3.25;1.20;;;15.10;99.90;;;;;;5096106;28;20416;-65
2022/12/31 13:06:28;;;;;;;2.03;1.00;;;15.10;99.90;;;;;;5070891;28;20893;-64
2022/12/31 13:09:10;;;;;;;1.92;1.20;;;15.10;99.90;;;;;;5095770;28;20402;-65
2022/12/31 13:11:46;;;;;;;1.90;1.10;;;15.20;99.90;;;;;;5096435;28;20425;-63
2022/12/31 13:14:24;;;;;;;4.10;1.60;;;15.20;99.90;;;;;;5095748;28;20414;-64
2022/12/31 13:16:57;;;;;;;1.65;0.90;;;15.20;99.90;;;;;;5095624;28;20870;-65
2022/12/31 13:19:35;;;;;;;1.20;0.90;;;15.20;99.90;;;;;;5096627;28;20894;-64
2022/12/31 13:22:08;;;;;;;4.20;1.20;;;15.20;99.90;;;;;;5095719;28;20428;-65
2022/12/31 13:24:48;;;;;;;3.00;1.10;;;15.30;99.90;;;;;;5095457;28;20505;-65
2022/12/31 13:27:22;;;;;;;3.17;1.10;;;15.30;99.90;;;;;;5095682;28;20409;-64
2022/12/31 13:29:49;;;;;;;2.63;1.20;;;15.30;99.90;;;;;;5095398;28;20945;-63
2022/12/31 13:32:19;;;;;;;2.70;1.20;;;15.40;99.90;;;;;;5095810;28;20437;-65
2022/12/31 13:34:50;;;;;;;1.63;1.00;;;15.40;99.90;;;;;;5094658;28;20418;-65
2022/12/31 13:37:26;;;;;;;1.75;0.98;;;15.50;99.90;;;;;;5095049;28;20881;-61